createdAt,value
2023-01-19T00:01:33.966Z,1.00
2023-01-19T00:04:01.675Z,1.00
2023-01-19T00:06:29.731Z,1.00
2023-01-19T00:08:57.459Z,1.00
2023-01-19T00:11:25.476Z,1.10
2023-01-19T00:13:53.836Z,1.10
2023-01-19T00:16:23.495Z,1.10
2023-01-19T00:18:52.526Z,1.10
2023-01-19T00:21:21.970Z,1.10
2023-01-19T00:23:52.909Z,1.10
2023-01-19T00:26:22.584Z,1.10
2023-01-19T00:28:50.703Z,1.10
2023-01-19T00:31:20.884Z,1.10
2023-01-19T00:33:49.593Z,1.10
2023-01-19T00:36:17.663Z,1.00
2023-01-19T00:38:45.420Z,1.10
2023-01-19T00:42:16.211Z,1.10
2023-01-19T00:44:43.956Z,1.00
2023-01-19T00:47:12.177Z,1.00
2023-01-19T00:49:40.179Z,1.00
2023-01-19T00:52:08.207Z,1.00
2023-01-19T00:54:35.962Z,1.00
2023-01-19T00:57:04.058Z,1.00
2023-01-19T00:59:31.699Z,1.00
2023-01-19T01:01:59.975Z,1.00
2023-01-19T01:04:27.735Z,1.00
2023-01-19T01:06:55.731Z,1.00
2023-01-19T01:09:23.824Z,1.00
2023-01-19T01:11:51.851Z,1.00
2023-01-19T01:14:19.745Z,1.00
2023-01-19T01:16:47.873Z,1.00
2023-01-19T01:19:16.218Z,1.00
2023-01-19T01:21:44.192Z,1.00
2023-01-19T01:24:12.299Z,0.90
2023-01-19T01:26:40.289Z,0.90
2023-01-19T01:29:08.676Z,0.90
2023-01-19T01:31:36.826Z,0.90
2023-01-19T01:34:04.578Z,0.80
2023-01-19T01:36:33.726Z,0.80
2023-01-19T01:39:01.654Z,0.80
2023-01-19T01:41:30.262Z,0.80
2023-01-19T01:43:59.154Z,0.80
2023-01-19T01:46:29.258Z,0.90
2023-01-19T01:49:02.287Z,1.00
2023-01-19T01:51:35.153Z,1.00
2023-01-19T01:54:08.636Z,1.00
2023-01-19T01:56:40.572Z,0.90
2023-01-19T01:59:13.488Z,0.80
2023-01-19T02:01:59.784Z,0.90
2023-01-19T02:04:28.506Z,0.90
2023-01-19T02:07:14.937Z,1.00
2023-01-19T02:10:01.166Z,1.00
2023-01-19T02:12:47.974Z,1.00
2023-01-19T02:15:20.563Z,1.00
2023-01-19T02:17:48.765Z,1.00
2023-01-19T02:20:16.966Z,1.00
2023-01-19T02:22:51.487Z,0.90
2023-01-19T02:25:20.512Z,0.90
2023-01-19T02:27:50.371Z,0.90
2023-01-19T02:30:18.784Z,0.90
2023-01-19T02:32:46.929Z,0.90
2023-01-19T02:35:14.854Z,1.00
2023-01-19T02:37:44.714Z,0.90
2023-01-19T02:40:15.396Z,1.00
2023-01-19T02:42:52.379Z,1.00
2023-01-19T02:45:23.616Z,1.00
2023-01-19T02:47:52.650Z,1.00
2023-01-19T02:50:42.191Z,1.00
2023-01-19T02:53:33.106Z,1.00
2023-01-19T02:56:30.253Z,1.00
2023-01-19T02:59:18.022Z,1.00
2023-01-19T03:02:18.455Z,0.90
2023-01-19T03:04:55.441Z,0.80
2023-01-19T03:08:04.788Z,0.80
2023-01-19T03:10:46.662Z,0.80
2023-01-19T03:13:22.318Z,0.80
2023-01-19T03:16:12.223Z,0.80
2023-01-19T03:18:43.211Z,0.80
2023-01-19T03:21:14.401Z,0.80
2023-01-19T03:23:46.782Z,0.80
2023-01-19T03:26:19.844Z,0.80
2023-01-19T03:28:49.224Z,0.80
2023-01-19T03:31:24.091Z,0.70
2023-01-19T03:33:56.478Z,0.70
2023-01-19T03:36:30.324Z,0.60
2023-01-19T03:39:00.507Z,0.60
2023-01-19T03:41:30.676Z,0.50
2023-01-19T03:43:59.585Z,0.50
2023-01-19T03:46:28.800Z,0.40
2023-01-19T03:48:58.641Z,0.30
2023-01-19T03:51:27.107Z,0.10
2023-01-19T03:53:54.815Z,0.00
2023-01-19T03:56:25.163Z,-0.10
2023-01-19T03:58:53.511Z,-0.10
2023-01-19T04:01:23.255Z,-0.20
2023-01-19T04:03:52.081Z,-0.30
2023-01-19T04:06:21.683Z,-0.40
2023-01-19T04:08:51.137Z,-0.50
2023-01-19T04:11:19.271Z,-0.60
2023-01-19T04:13:46.962Z,-0.60
2023-01-19T04:16:20.178Z,-0.70
2023-01-19T04:18:48.752Z,-0.70
2023-01-19T04:21:17.128Z,-0.90
2023-01-19T04:23:46.214Z,-0.90
2023-01-19T04:26:14.251Z,-1.00
2023-01-19T04:28:42.175Z,-1.00
2023-01-19T04:31:10.724Z,-1.10
2023-01-19T04:33:38.564Z,-1.10
2023-01-19T04:36:06.849Z,-1.10
2023-01-19T04:38:34.908Z,-1.30
2023-01-19T04:41:03.231Z,-1.30
2023-01-19T04:43:31.066Z,-1.30
2023-01-19T04:45:59.431Z,-1.30
2023-01-19T04:48:27.328Z,-1.40
2023-01-19T04:50:55.442Z,-1.50
2023-01-19T04:53:23.133Z,-1.50
2023-01-19T04:55:55.589Z,-1.50
2023-01-19T04:58:23.531Z,-1.60
2023-01-19T05:00:52.493Z,-1.60
2023-01-19T05:03:20.666Z,-1.60
2023-01-19T05:05:48.844Z,-1.70
2023-01-19T05:08:16.757Z,-1.70
2023-01-19T05:10:44.815Z,-1.70
2023-01-19T05:13:12.484Z,-1.80
2023-01-19T05:15:42.835Z,-1.80
2023-01-19T05:18:10.864Z,-1.80
2023-01-19T05:20:39.877Z,-1.80
2023-01-19T05:23:07.625Z,-1.90
2023-01-19T05:25:35.951Z,-1.90
2023-01-19T05:28:04.259Z,-1.90
2023-01-19T05:30:34.176Z,-1.90
2023-01-19T05:33:02.252Z,-1.90
2023-01-19T05:35:36.200Z,-2.00
2023-01-19T05:38:05.036Z,-2.00
2023-01-19T05:40:33.757Z,-2.10
2023-01-19T05:43:04.861Z,-2.10
2023-01-19T05:45:33.434Z,-2.10
2023-01-19T05:48:01.498Z,-2.10
2023-01-19T05:50:29.678Z,-2.10
2023-01-19T05:52:57.879Z,-2.10
2023-01-19T05:55:26.340Z,-2.10
2023-01-19T05:57:54.084Z,-2.10
2023-01-19T06:00:22.271Z,-2.10
2023-01-19T06:02:50.371Z,-2.10
2023-01-19T06:05:18.579Z,-2.20
2023-01-19T06:07:46.460Z,-2.20
2023-01-19T06:10:14.532Z,-2.20
2023-01-19T06:12:42.341Z,-2.20
2023-01-19T06:15:10.819Z,-2.30
2023-01-19T06:17:38.662Z,-2.30
2023-01-19T06:20:07.525Z,-2.30
2023-01-19T06:22:35.212Z,-2.30
2023-01-19T06:25:03.446Z,-2.30
2023-01-19T06:27:31.196Z,-2.30
2023-01-19T06:29:59.372Z,-2.30
2023-01-19T06:32:27.185Z,-2.30
2023-01-19T06:34:55.251Z,-2.30
2023-01-19T06:37:23.032Z,-2.30
2023-01-19T06:39:50.996Z,-2.30
2023-01-19T06:42:18.823Z,-2.30
2023-01-19T06:44:48.313Z,-2.40
2023-01-19T06:47:16.755Z,-2.40
2023-01-19T06:49:46.004Z,-2.30
2023-01-19T06:52:18.668Z,-2.30
2023-01-19T06:55:13.435Z,-2.30
2023-01-19T06:57:59.681Z,-2.40
2023-01-19T07:00:27.932Z,-2.30
2023-01-19T07:02:55.767Z,-2.30
2023-01-19T07:05:24.711Z,-2.30
2023-01-19T07:07:56.927Z,-2.20
2023-01-19T07:10:25.426Z,-2.20
2023-01-19T07:12:53.562Z,-2.20
2023-01-19T07:15:23.153Z,-2.10
2023-01-19T07:17:51.014Z,-2.10
2023-01-19T07:20:19.929Z,-2.10
2023-01-19T07:22:47.654Z,-2.10
2023-01-19T07:25:15.829Z,-2.00
2023-01-19T07:27:45.511Z,-1.90
2023-01-19T07:30:16.235Z,-1.90
2023-01-19T07:32:43.949Z,-1.90
2023-01-19T07:35:12.058Z,-1.80
2023-01-19T07:37:39.902Z,-1.80
2023-01-19T07:40:08.680Z,-1.80
2023-01-19T07:42:36.744Z,-1.70
2023-01-19T07:45:05.421Z,-1.70
2023-01-19T07:47:33.186Z,-1.70
2023-01-19T07:50:01.353Z,-1.60
2023-01-19T07:52:29.121Z,-1.60
2023-01-19T07:54:57.110Z,-1.60
2023-01-19T07:57:24.862Z,-1.50
2023-01-19T07:59:53.245Z,-1.50
2023-01-19T08:02:21.153Z,-1.50
2023-01-19T08:04:49.402Z,-1.50
2023-01-19T08:07:17.151Z,-1.40
2023-01-19T08:09:45.237Z,-1.30
2023-01-19T08:12:12.991Z,-1.30
2023-01-19T08:14:41.262Z,-1.30
2023-01-19T08:17:13.984Z,-1.30
2023-01-19T08:19:43.385Z,-1.20
2023-01-19T08:22:11.205Z,-1.20
2023-01-19T08:24:39.258Z,-1.10
2023-01-19T08:27:07.214Z,-1.10
2023-01-19T08:29:35.418Z,-1.10
2023-01-19T08:32:03.362Z,-1.10
2023-01-19T08:34:32.240Z,-1.00
2023-01-19T08:37:00.048Z,-1.00
2023-01-19T08:39:28.355Z,-0.90
2023-01-19T08:41:56.634Z,-0.90
2023-01-19T08:44:24.674Z,-0.80
2023-01-19T08:46:52.411Z,-0.70
2023-01-19T08:49:20.966Z,-0.70
2023-01-19T08:51:49.330Z,-0.70
2023-01-19T08:54:18.737Z,-0.60
2023-01-19T08:56:46.575Z,-0.50
2023-01-19T08:59:14.674Z,-0.50
2023-01-19T09:01:42.536Z,-0.40
2023-01-19T09:04:10.664Z,-0.30
2023-01-19T09:06:38.429Z,-0.20
2023-01-19T09:09:06.550Z,-0.10
2023-01-19T09:11:35.223Z,-0.10
2023-01-19T09:14:04.386Z,0.00
2023-01-19T09:16:33.162Z,0.10
2023-01-19T09:19:01.217Z,0.30
2023-01-19T09:21:29.272Z,0.50
2023-01-19T09:23:58.032Z,1.10
2023-01-19T09:26:25.760Z,2.20
2023-01-19T09:28:53.863Z,3.70
2023-01-19T09:31:21.798Z,5.30
2023-01-19T09:33:49.999Z,6.80
2023-01-19T09:36:17.752Z,8.00
2023-01-19T09:38:46.107Z,8.90
2023-01-19T09:41:22.465Z,9.30
2023-01-19T09:44:00.674Z,9.60
2023-01-19T09:46:39.757Z,10.10
2023-01-19T09:49:25.432Z,10.80
2023-01-19T09:51:53.395Z,11.40
2023-01-19T09:54:46.948Z,11.70
2023-01-19T09:57:15.080Z,11.90
2023-01-19T09:59:48.038Z,11.90
2023-01-19T10:02:41.051Z,11.50
2023-01-19T10:05:27.670Z,11.30
2023-01-19T10:07:55.654Z,12.00
2023-01-19T10:10:27.584Z,12.50
2023-01-19T10:13:20.695Z,12.10
2023-01-19T10:16:25.342Z,11.90
2023-01-19T10:19:00.921Z,11.90
2023-01-19T10:21:38.356Z,12.20
2023-01-19T10:24:22.195Z,12.90
2023-01-19T10:26:57.673Z,13.50
2023-01-19T10:29:38.125Z,14.10
2023-01-19T10:32:14.154Z,14.10
2023-01-19T10:34:42.023Z,14.10
2023-01-19T10:37:40.855Z,13.70
2023-01-19T10:40:11.966Z,13.60
2023-01-19T10:42:42.424Z,14.20
2023-01-19T10:45:15.390Z,14.60
2023-01-19T10:47:45.665Z,14.30
2023-01-19T10:50:29.784Z,13.90
2023-01-19T10:53:06.354Z,13.50
2023-01-19T10:55:40.843Z,13.30
2023-01-19T10:58:31.251Z,12.70
2023-01-19T11:01:15.000Z,12.00
2023-01-19T11:03:43.572Z,11.70
2023-01-19T11:06:17.225Z,11.30
2023-01-19T11:08:47.591Z,11.00
2023-01-19T11:11:15.341Z,10.90
2023-01-19T11:13:44.429Z,10.50
2023-01-19T11:16:27.027Z,10.30
2023-01-19T11:18:57.153Z,10.00
2023-01-19T11:21:27.187Z,9.80
2023-01-19T11:24:05.599Z,10.00
2023-01-19T11:27:03.245Z,10.20
2023-01-19T11:29:32.353Z,10.70
2023-01-19T11:32:19.872Z,11.20
2023-01-19T11:34:48.104Z,11.50
2023-01-19T11:37:19.101Z,11.70
2023-01-19T11:39:52.068Z,11.70
2023-01-19T11:42:21.083Z,11.80
2023-01-19T11:44:54.975Z,11.90
2023-01-19T11:47:31.257Z,12.40
2023-01-19T11:50:22.904Z,12.80
2023-01-19T11:53:14.762Z,13.80
2023-01-19T11:55:58.303Z,14.30
2023-01-19T11:58:27.073Z,14.20
2023-01-19T12:01:11.446Z,13.90
2023-01-19T12:03:57.203Z,14.00
2023-01-19T12:06:38.212Z,14.20
2023-01-19T12:09:27.335Z,13.70
2023-01-19T12:12:04.396Z,13.30
2023-01-19T12:14:57.459Z,12.90
2023-01-19T12:17:38.459Z,12.40
2023-01-19T12:20:20.833Z,12.10
2023-01-19T12:23:01.721Z,11.90
2023-01-19T12:25:46.232Z,11.40
2023-01-19T12:28:17.217Z,11.40
2023-01-19T12:30:45.876Z,11.50
2023-01-19T12:33:29.353Z,11.60
2023-01-19T12:38:50.538Z,11.50
2023-01-19T12:41:28.873Z,11.10
2023-01-19T12:44:12.280Z,10.90
2023-01-19T12:46:49.639Z,10.60
2023-01-19T12:49:36.206Z,10.40
2023-01-19T12:52:24.455Z,10.10
2023-01-19T12:55:18.031Z,9.80
2023-01-19T12:58:04.680Z,9.40
2023-01-19T13:00:35.947Z,9.30
2023-01-19T13:03:27.230Z,9.10
2023-01-19T13:05:56.636Z,9.20
2023-01-19T13:08:30.724Z,9.10
2023-01-19T13:11:11.115Z,8.80
2023-01-19T13:14:05.451Z,8.40
2023-01-19T13:16:36.571Z,8.10
2023-01-19T13:19:07.159Z,8.00
2023-01-19T13:21:43.598Z,7.80
2023-01-19T13:24:22.550Z,7.60
2023-01-19T13:27:03.683Z,7.20
2023-01-19T13:29:41.452Z,7.20
2023-01-19T13:32:19.129Z,7.00
2023-01-19T13:34:54.885Z,6.80
2023-01-19T13:37:26.614Z,6.50
2023-01-19T13:39:55.913Z,6.40
2023-01-19T13:42:31.989Z,6.40
2023-01-19T13:45:03.710Z,6.30
2023-01-19T13:47:45.075Z,6.10
2023-01-19T13:50:25.435Z,5.90
2023-01-19T13:52:55.909Z,5.80
2023-01-19T13:55:25.466Z,5.60
2023-01-19T13:57:54.617Z,5.50
2023-01-19T14:00:31.611Z,5.40
2023-01-19T14:03:21.771Z,5.40
2023-01-19T14:05:54.834Z,5.30
2023-01-19T14:08:25.836Z,5.30
2023-01-19T14:10:57.219Z,5.10
2023-01-19T14:13:27.554Z,4.90
2023-01-19T14:16:04.523Z,4.60
2023-01-19T14:18:34.986Z,4.40
2023-01-19T14:21:04.679Z,4.10
2023-01-19T14:23:53.391Z,3.90
2023-01-19T14:26:40.003Z,3.60
2023-01-19T14:29:33.104Z,3.50
2023-01-19T14:32:01.146Z,3.30
2023-01-19T14:35:12.688Z,3.30
2023-01-19T14:37:49.645Z,3.10
2023-01-19T14:40:19.856Z,3.00
2023-01-19T14:42:57.685Z,2.90
2023-01-19T14:45:34.358Z,2.70
2023-01-19T14:48:15.769Z,2.50
2023-01-19T14:51:01.573Z,2.40
2023-01-19T14:53:37.050Z,2.20
2023-01-19T14:56:07.048Z,2.10
2023-01-19T14:58:36.084Z,1.90
2023-01-19T15:01:05.033Z,1.80
2023-01-19T15:03:48.527Z,1.70
2023-01-19T15:06:21.516Z,1.60
2023-01-19T15:08:50.533Z,1.40
2023-01-19T15:11:32.923Z,1.40
2023-01-19T15:14:01.766Z,1.20
2023-01-19T15:16:32.340Z,1.10
2023-01-19T15:19:00.534Z,1.00
2023-01-19T15:21:28.744Z,0.80
2023-01-19T15:23:58.570Z,0.80
2023-01-19T15:26:27.637Z,0.60
2023-01-19T15:28:56.806Z,0.60
2023-01-19T15:31:26.809Z,0.60
2023-01-19T15:33:54.857Z,0.50
2023-01-19T15:36:24.638Z,0.40
2023-01-19T15:38:52.551Z,0.30
2023-01-19T15:41:30.180Z,0.30
2023-01-19T15:43:58.721Z,0.20
2023-01-19T15:46:27.758Z,0.00
2023-01-19T15:48:55.651Z,0.00
2023-01-19T15:51:26.177Z,0.00
2023-01-19T15:53:54.779Z,-0.10
2023-01-19T15:56:31.040Z,-0.10
2023-01-19T15:58:59.471Z,-0.20
2023-01-19T16:01:32.415Z,-0.20
2023-01-19T16:04:02.285Z,-0.30
2023-01-19T16:06:32.635Z,-0.30
2023-01-19T16:09:01.718Z,-0.30
2023-01-19T16:11:32.170Z,-0.40
2023-01-19T16:14:00.465Z,-0.40
2023-01-19T16:16:30.036Z,-0.40
2023-01-19T16:18:58.046Z,-0.40
2023-01-19T16:21:26.424Z,-0.40
2023-01-19T16:23:54.653Z,-0.40
2023-01-19T16:26:34.719Z,-0.40
2023-01-19T16:29:09.038Z,-0.40
2023-01-19T16:31:38.724Z,-0.40
2023-01-19T16:34:07.848Z,-0.30
2023-01-19T16:36:40.550Z,-0.30
2023-01-19T16:39:14.419Z,-0.30
2023-01-19T16:41:43.802Z,-0.30
2023-01-19T16:44:14.642Z,-0.30
2023-01-19T16:46:45.302Z,-0.40
2023-01-19T16:49:27.486Z,-0.40
2023-01-19T16:51:58.786Z,-0.40
2023-01-19T16:54:27.884Z,-0.50
2023-01-19T16:56:57.883Z,-0.50
2023-01-19T16:59:27.430Z,-0.50
2023-01-19T17:01:56.323Z,-0.50
2023-01-19T17:04:25.935Z,-0.50
2023-01-19T17:06:55.749Z,-0.50
2023-01-19T17:09:23.539Z,-0.50
2023-01-19T17:11:53.631Z,-0.50
2023-01-19T17:14:22.567Z,-0.50
2023-01-19T17:16:51.263Z,-0.60
2023-01-19T17:19:23.578Z,-0.60
2023-01-19T17:21:52.700Z,-0.60
2023-01-19T17:24:21.573Z,-0.70
2023-01-19T17:26:52.421Z,-0.70
2023-01-19T17:29:21.401Z,-0.70
2023-01-19T17:31:53.864Z,-0.70
2023-01-19T17:34:22.809Z,-0.70
2023-01-19T17:36:52.333Z,-0.70
2023-01-19T17:39:20.850Z,-0.70
2023-01-19T17:41:50.381Z,-0.80
2023-01-19T17:44:20.259Z,-0.80
2023-01-19T17:46:49.515Z,-0.90
2023-01-19T17:49:18.306Z,-0.90
2023-01-19T17:51:55.590Z,-0.90
2023-01-19T17:54:25.013Z,-0.90
2023-01-19T17:56:56.848Z,-1.00
2023-01-19T17:59:25.813Z,-1.00
2023-01-19T18:01:55.489Z,-1.00
2023-01-19T18:04:27.739Z,-1.10
2023-01-19T18:06:57.906Z,-1.10
2023-01-19T18:09:26.833Z,-1.10
2023-01-19T18:11:56.771Z,-1.10
2023-01-19T18:14:27.221Z,-1.10
2023-01-19T18:16:56.861Z,-1.20
2023-01-19T18:19:25.792Z,-1.20
2023-01-19T18:21:55.672Z,-1.20
2023-01-19T18:24:24.847Z,-1.20
2023-01-19T18:26:56.286Z,-1.10
2023-01-19T18:29:24.987Z,-1.10
2023-01-19T18:31:55.952Z,-1.10
2023-01-19T18:34:26.070Z,-1.10
2023-01-19T18:36:56.205Z,-1.10
2023-01-19T18:39:25.017Z,-1.10
2023-01-19T18:41:54.725Z,-1.00
2023-01-19T18:44:23.984Z,-1.00
2023-01-19T18:46:55.492Z,-1.10
2023-01-19T18:49:24.951Z,-1.00
2023-01-19T18:51:54.651Z,-1.00
2023-01-19T18:54:23.720Z,-1.00
2023-01-19T18:56:53.061Z,-1.00
2023-01-19T18:59:21.748Z,-1.00
2023-01-19T19:01:52.507Z,-1.00
2023-01-19T19:04:21.475Z,-1.00
2023-01-19T19:06:52.350Z,-1.00
2023-01-19T19:09:22.309Z,-1.00
2023-01-19T19:11:55.330Z,-1.00
2023-01-19T19:14:24.589Z,-1.00
2023-01-19T19:16:56.725Z,-1.00
2023-01-19T19:19:27.775Z,-1.00
2023-01-19T19:22:01.405Z,-1.00
2023-01-19T19:24:30.813Z,-1.00
2023-01-19T19:27:00.849Z,-1.00
2023-01-19T19:29:29.869Z,-1.00
2023-01-19T19:31:59.659Z,-1.00
2023-01-19T19:34:29.503Z,-1.00
2023-01-19T19:37:01.104Z,-1.00
2023-01-19T19:39:33.185Z,-0.90
2023-01-19T19:42:02.381Z,-0.90
2023-01-19T19:44:31.528Z,-0.90
2023-01-19T19:47:01.237Z,-0.90
2023-01-19T19:49:29.775Z,-0.90
2023-01-19T19:52:00.412Z,-0.90
2023-01-19T19:54:29.612Z,-1.00
2023-01-19T19:56:59.333Z,-1.00
2023-01-19T19:59:28.823Z,-0.90
2023-01-19T20:01:58.889Z,-0.90
2023-01-19T20:04:28.816Z,-0.90
2023-01-19T20:07:01.450Z,-0.90
2023-01-19T20:09:33.306Z,-0.90
2023-01-19T20:12:03.389Z,-0.80
2023-01-19T20:14:36.136Z,-0.70
2023-01-19T20:17:06.587Z,-0.80
2023-01-19T20:19:35.682Z,-0.80
2023-01-19T20:22:05.492Z,-0.70
2023-01-19T20:24:34.178Z,-0.70
2023-01-19T20:27:04.358Z,-0.70
2023-01-19T20:29:34.987Z,-0.70
2023-01-19T20:32:04.840Z,-0.70
2023-01-19T20:34:37.650Z,-0.70
2023-01-19T20:37:08.216Z,-0.70
2023-01-19T20:39:39.608Z,-0.70
2023-01-19T20:42:16.307Z,-0.70
2023-01-19T20:44:48.360Z,-0.70
2023-01-19T20:47:18.166Z,-0.70
2023-01-19T20:49:49.424Z,-0.80
2023-01-19T20:52:21.800Z,-0.80
2023-01-19T20:54:50.794Z,-0.90
2023-01-19T20:57:51.898Z,-0.90
2023-01-19T21:00:23.135Z,-0.80
2023-01-19T21:02:52.803Z,-0.90
2023-01-19T21:05:21.790Z,-0.90
2023-01-19T21:07:51.110Z,-0.90
2023-01-19T21:10:22.412Z,-1.00
2023-01-19T21:12:51.850Z,-1.00
2023-01-19T21:15:20.116Z,-1.10
2023-01-19T21:17:51.134Z,-1.10
2023-01-19T21:20:19.916Z,-1.10
2023-01-19T21:22:49.518Z,-1.10
2023-01-19T21:25:20.496Z,-1.10
2023-01-19T21:27:49.121Z,-1.10
2023-01-19T21:30:19.197Z,-1.10
2023-01-19T21:32:47.565Z,-1.10
2023-01-19T21:35:16.115Z,-1.10
2023-01-19T21:37:44.627Z,-1.10
2023-01-19T21:40:13.205Z,-1.10
2023-01-19T21:42:42.636Z,-1.10
2023-01-19T21:45:12.027Z,-1.20
2023-01-19T21:47:40.531Z,-1.20
2023-01-19T21:50:08.731Z,-1.20
2023-01-19T21:52:36.861Z,-1.20
2023-01-19T21:55:05.352Z,-1.20
2023-01-19T21:57:33.628Z,-1.20
2023-01-19T22:00:01.455Z,-1.20
2023-01-19T22:02:38.204Z,-1.20
2023-01-19T22:05:07.288Z,-1.20
2023-01-19T22:07:35.336Z,-1.30
2023-01-19T22:10:03.308Z,-1.30
2023-01-19T22:12:31.344Z,-1.30
2023-01-19T22:15:00.296Z,-1.30
2023-01-19T22:17:28.840Z,-1.30
2023-01-19T22:19:56.713Z,-1.30
2023-01-19T22:22:24.743Z,-1.30
2023-01-19T22:24:52.651Z,-1.30
2023-01-19T22:27:20.721Z,-1.30
2023-01-19T22:29:48.406Z,-1.30
2023-01-19T22:32:17.916Z,-1.30
2023-01-19T22:34:45.633Z,-1.30
2023-01-19T22:37:14.218Z,-1.30
2023-01-19T22:39:43.601Z,-1.30
2023-01-19T22:42:11.852Z,-1.30
2023-01-19T22:44:39.853Z,-1.40
2023-01-19T22:47:07.966Z,-1.40
2023-01-19T22:49:37.059Z,-1.40
2023-01-19T22:52:05.432Z,-1.40
2023-01-19T22:54:33.504Z,-1.50
2023-01-19T22:57:02.803Z,-1.50
2023-01-19T22:59:31.815Z,-1.50
2023-01-19T23:01:59.981Z,-1.50
2023-01-19T23:04:27.917Z,-1.50
2023-01-19T23:06:55.834Z,-1.50
2023-01-19T23:09:26.967Z,-1.50
2023-01-19T23:11:55.028Z,-1.50
2023-01-19T23:14:23.169Z,-1.50
2023-01-19T23:17:43.981Z,-1.50
2023-01-19T23:20:13.365Z,-1.50
2023-01-19T23:22:41.539Z,-1.60
2023-01-19T23:25:09.503Z,-1.60
2023-01-19T23:27:38.782Z,-1.60
2023-01-19T23:30:07.057Z,-1.60
2023-01-19T23:32:36.041Z,-1.60
2023-01-19T23:35:03.947Z,-1.60
2023-01-19T23:37:31.949Z,-1.60
2023-01-19T23:40:00.689Z,-1.60
2023-01-19T23:42:28.748Z,-1.60
2023-01-19T23:44:56.566Z,-1.60
2023-01-19T23:47:25.296Z,-1.60
2023-01-19T23:49:53.025Z,-1.60
2023-01-19T23:52:22.593Z,-1.60
2023-01-19T23:54:51.441Z,-1.60
2023-01-19T23:57:23.199Z,-1.50
2023-01-19T23:59:50.995Z,-1.50
